sensor_id;sensor_type;location;lat;lon;timestamp;pressure;altitude;pressure_sealevel;temperature;humidity
69855;BME280;57146;48.140;16.304;2023-03-23T11:25:05;98977.81;;;17.16;48.93
69855;BME280;57146;48.140;16.304;2023-03-23T11:27:32;98978.06;;;17.11;47.81
69855;BME280;57146;48.140;16.304;2023-03-23T11:32:45;98971.72;;;17.15;48.03
69855;BME280;57146;48.140;16.304;2023-03-23T11:35:20;98959.31;;;17.23;48.07
69855;BME280;57146;48.140;16.304;2023-03-23T11:37:51;98966.69;;;17.30;48.81
69855;BME280;57146;48.140;16.304;2023-03-23T11:40:21;98956.09;;;17.33;47.26
69855;BME280;57146;48.140;16.304;2023-03-23T11:42:56;98955.34;;;17.33;47.99
69855;BME280;57146;48.140;16.304;2023-03-23T11:50:31;98953.88;;;17.58;48.19
69855;BME280;57146;48.140;16.304;2023-03-23T11:53:22;98940.72;;;17.65;46.91
69855;BME280;57146;48.140;16.304;2023-03-23T11:56:55;98944.59;;;17.71;46.94
69855;BME280;57146;48.140;16.304;2023-03-23T11:58:58;98943.81;;;17.71;46.60
69855;BME280;57146;48.140;16.304;2023-03-23T12:01:31;98943.88;;;17.75;47.38
69855;BME280;57146;48.140;16.304;2023-03-23T12:23:21;98919.84;;;17.90;45.67
69855;BME280;57146;48.140;16.304;2023-03-23T12:33:56;98917.09;;;18.10;46.49
69855;BME280;57146;48.140;16.304;2023-03-23T12:36:47;98916.94;;;18.26;45.93
69855;BME280;57146;48.140;16.304;2023-03-23T12:44:39;98910.13;;;18.55;44.17
69855;BME280;57146;48.140;16.304;2023-03-23T12:50:03;98899.78;;;18.53;44.00
69855;BME280;57146;48.140;16.304;2023-03-23T12:52:37;98905.44;;;18.48;43.86
69855;BME280;57146;48.140;16.304;2023-03-23T13:05:59;98899.03;;;18.53;44.69
69855;BME280;57146;48.140;16.304;2023-03-23T13:08:37;98883.47;;;18.55;44.80
69855;BME280;57146;48.140;16.304;2023-03-23T13:11:15;98886.22;;;18.62;44.39
69855;BME280;57146;48.140;16.304;2023-03-23T13:13:44;98888.88;;;18.62;44.51
69855;BME280;57146;48.140;16.304;2023-03-23T13:16:27;98877.50;;;18.65;44.97
69855;BME280;57146;48.140;16.304;2023-03-23T13:22:11;98877.88;;;18.67;44.05
69855;BME280;57146;48.140;16.304;2023-03-23T13:24:57;98880.69;;;18.78;44.43
69855;BME280;57146;48.140;16.304;2023-03-23T13:27:25;98873.16;;;18.83;43.69
69855;BME280;57146;48.140;16.304;2023-03-23T13:29:51;98867.19;;;18.94;43.86
69855;BME280;57146;48.140;16.304;2023-03-23T13:32:18;98868.25;;;18.85;43.25
69855;BME280;57146;48.140;16.304;2023-03-23T13:34:48;98867.91;;;18.90;43.27
69855;BME280;57146;48.140;16.304;2023-03-23T13:37:24;98859.19;;;18.94;42.71
69855;BME280;57146;48.140;16.304;2023-03-23T13:39:58;98854.22;;;18.96;43.03
69855;BME280;57146;48.140;16.304;2023-03-23T13:42:28;98852.41;;;19.00;43.07
69855;BME280;57146;48.140;16.304;2023-03-23T13:45:18;98847.44;;;19.02;43.76
69855;BME280;57146;48.140;16.304;2023-03-23T13:47:45;98848.66;;;19.08;43.40
69855;BME280;57146;48.140;16.304;2023-03-23T13:50:11;98845.91;;;19.01;43.16
69855;BME280;57146;48.140;16.304;2023-03-23T13:55:18;98846.53;;;18.87;42.61
69855;BME280;57146;48.140;16.304;2023-03-23T14:03:33;98842.06;;;18.98;43.69
69855;BME280;57146;48.140;16.304;2023-03-23T14:06:03;98840.59;;;19.01;44.38
69855;BME280;57146;48.140;16.304;2023-03-23T14:08:43;98847.47;;;19.05;44.00
69855;BME280;57146;48.140;16.304;2023-03-23T14:11:26;98845.25;;;19.11;43.62
69855;BME280;57146;48.140;16.304;2023-03-23T14:14:07;98837.28;;;19.14;42.87
69855;BME280;57146;48.140;16.304;2023-03-23T14:16:40;98840.34;;;19.17;43.34
69855;BME280;57146;48.140;16.304;2023-03-23T14:19:17;98836.97;;;19.23;42.99
69855;BME280;57146;48.140;16.304;2023-03-23T14:22:04;98835.53;;;19.33;42.20
69855;BME280;57146;48.140;16.304;2023-03-23T14:24:39;98839.75;;;19.34;42.10
69855;BME280;57146;48.140;16.304;2023-03-23T14:29:36;98839.00;;;19.37;40.93
69855;BME280;57146;48.140;16.304;2023-03-23T14:32:06;98840.50;;;19.34;41.72
69855;BME280;57146;48.140;16.304;2023-03-23T14:34:34;98846.22;;;19.33;40.09
69855;BME280;57146;48.140;16.304;2023-03-23T14:37:00;98838.56;;;19.31;40.24
69855;BME280;57146;48.140;16.304;2023-03-23T14:39:29;98844.38;;;19.41;40.09
69855;BME280;57146;48.140;16.304;2023-03-23T14:42:01;98834.84;;;19.40;39.95
69855;BME280;57146;48.140;16.304;2023-03-23T14:44:34;98845.50;;;19.36;39.95
69855;BME280;57146;48.140;16.304;2023-03-23T14:47:06;98830.59;;;19.35;39.53
69855;BME280;57146;48.140;16.304;2023-03-23T14:49:36;98830.28;;;19.40;39.51
69855;BME280;57146;48.140;16.304;2023-03-23T14:52:14;98828.38;;;19.41;38.67
69855;BME280;57146;48.140;16.304;2023-03-23T14:54:41;98832.56;;;19.42;38.77
69855;BME280;57146;48.140;16.304;2023-03-23T14:57:18;98828.31;;;19.33;38.38
69855;BME280;57146;48.140;16.304;2023-03-23T14:59:46;98824.56;;;19.42;39.18
69855;BME280;57146;48.140;16.304;2023-03-23T15:04:54;98823.50;;;19.50;39.61
69855;BME280;57146;48.140;16.304;2023-03-23T15:07:29;98817.72;;;19.44;39.61
69855;BME280;57146;48.140;16.304;2023-03-23T15:09:57;98823.81;;;19.45;39.87
69855;BME280;57146;48.140;16.304;2023-03-23T15:12:28;98816.22;;;19.47;40.09
69855;BME280;57146;48.140;16.304;2023-03-23T15:14:57;98826.16;;;19.50;39.80
69855;BME280;57146;48.140;16.304;2023-03-23T15:17:32;98830.72;;;19.53;39.05
69855;BME280;57146;48.140;16.304;2023-03-23T15:20:17;98825.44;;;19.56;39.25
69855;BME280;57146;48.140;16.304;2023-03-23T15:22:48;98825.81;;;19.55;38.65
69855;BME280;57146;48.140;16.304;2023-03-23T15:25:20;98833.41;;;19.53;38.70
69855;BME280;57146;48.140;16.304;2023-03-23T15:30:32;98824.91;;;19.36;37.89
69855;BME280;57146;48.140;16.304;2023-03-23T15:33:03;98833.63;;;19.33;37.88
69855;BME280;57146;48.140;16.304;2023-03-23T15:35:34;98829.81;;;19.31;38.40
69855;BME280;57146;48.140;16.304;2023-03-23T15:38:03;98835.13;;;19.31;38.15
69855;BME280;57146;48.140;16.304;2023-03-23T15:40:34;98832.00;;;19.18;38.65
69855;BME280;57146;48.140;16.304;2023-03-23T15:46:03;98825.84;;;19.14;39.37
69855;BME280;57146;48.140;16.304;2023-03-23T15:48:44;98829.25;;;19.11;39.00
69855;BME280;57146;48.140;16.304;2023-03-23T15:51:12;98829.97;;;19.08;39.47
69855;BME280;57146;48.140;16.304;2023-03-23T15:53:40;98824.22;;;19.06;39.70
69855;BME280;57146;48.140;16.304;2023-03-23T15:56:08;98824.16;;;18.99;39.90
69855;BME280;57146;48.140;16.304;2023-03-23T15:58:36;98819.94;;;18.94;39.76
69855;BME280;57146;48.140;16.304;2023-03-23T16:01:07;98826.41;;;18.93;40.17
69855;BME280;57146;48.140;16.304;2023-03-23T16:03:45;98823.69;;;18.86;40.54
69855;BME280;57146;48.140;16.304;2023-03-23T16:06:14;98822.81;;;18.78;41.20
69855;BME280;57146;48.140;16.304;2023-03-23T16:08:52;98824.72;;;18.78;41.09
69855;BME280;57146;48.140;16.304;2023-03-23T16:11:46;98826.31;;;18.82;41.15
69855;BME280;57146;48.140;16.304;2023-03-23T16:14:14;98825.94;;;18.84;41.12
69855;BME280;57146;48.140;16.304;2023-03-23T16:16:45;98831.59;;;18.79;41.39
69855;BME280;57146;48.140;16.304;2023-03-23T16:19:16;98831.91;;;18.74;41.85
69855;BME280;57146;48.140;16.304;2023-03-23T16:21:44;98835.72;;;18.73;41.71
69855;BME280;57146;48.140;16.304;2023-03-23T16:24:12;98833.28;;;18.64;42.05
69855;BME280;57146;48.140;16.304;2023-03-23T16:26:39;98835.56;;;18.62;42.65
69855;BME280;57146;48.140;16.304;2023-03-23T16:29:14;98837.06;;;18.59;42.76
69855;BME280;57146;48.140;16.304;2023-03-23T16:32:02;98830.09;;;18.51;43.25
69855;BME280;57146;48.140;16.304;2023-03-23T16:34:30;98841.03;;;18.42;43.43
69855;BME280;57146;48.140;16.304;2023-03-23T16:36:58;98840.94;;;18.35;44.14
69855;BME280;57146;48.140;16.304;2023-03-23T16:39:25;98839.41;;;18.34;44.50
69855;BME280;57146;48.140;16.304;2023-03-23T16:41:54;98835.56;;;18.32;44.41
69855;BME280;57146;48.140;16.304;2023-03-23T16:44:21;98842.34;;;18.26;44.59
69855;BME280;57146;48.140;16.304;2023-03-23T16:46:48;98848.66;;;18.14;45.40
69855;BME280;57146;48.140;16.304;2023-03-23T16:49:16;98854.19;;;18.02;45.83
69855;BME280;57146;48.140;16.304;2023-03-23T16:51:43;98853.38;;;17.98;45.95
69855;BME280;57146;48.140;16.304;2023-03-23T16:54:10;98850.19;;;17.88;46.50
69855;BME280;57146;48.140;16.304;2023-03-23T16:56:37;98850.66;;;17.71;47.29
69855;BME280;57146;48.140;16.304;2023-03-23T16:59:04;98862.38;;;17.66;47.21
69855;BME280;57146;48.140;16.304;2023-03-23T17:01:31;98863.56;;;17.46;48.08
69855;BME280;57146;48.140;16.304;2023-03-23T17:04:23;98872.50;;;17.34;49.01
69855;BME280;57146;48.140;16.304;2023-03-23T17:06:51;98865.34;;;17.15;48.94
69855;BME280;57146;48.140;16.304;2023-03-23T17:09:18;98861.28;;;17.02;49.02
69855;BME280;57146;48.140;16.304;2023-03-23T17:11:45;98866.75;;;17.09;49.26
69855;BME280;57146;48.140;16.304;2023-03-23T17:14:13;98873.88;;;17.05;48.93
69855;BME280;57146;48.140;16.304;2023-03-23T17:16:40;98880.91;;;16.94;49.64
69855;BME280;57146;48.140;16.304;2023-03-23T17:19:07;98876.41;;;16.79;49.71
69855;BME280;57146;48.140;16.304;2023-03-23T17:21:34;98868.53;;;16.47;51.55
69855;BME280;57146;48.140;16.304;2023-03-23T17:24:03;98871.91;;;16.44;51.07
69855;BME280;57146;48.140;16.304;2023-03-23T17:26:30;98866.91;;;16.23;52.29
69855;BME280;57146;48.140;16.304;2023-03-23T17:28:58;98865.25;;;16.34;51.37
69855;BME280;57146;48.140;16.304;2023-03-23T17:31:25;98872.44;;;16.34;51.35
69855;BME280;57146;48.140;16.304;2023-03-23T17:33:52;98870.84;;;16.13;51.33
69855;BME280;57146;48.140;16.304;2023-03-23T17:36:21;98875.66;;;16.08;51.65
69855;BME280;57146;48.140;16.304;2023-03-23T17:38:49;98875.31;;;16.09;51.80
69855;BME280;57146;48.140;16.304;2023-03-23T17:41:17;98877.63;;;16.11;51.71
69855;BME280;57146;48.140;16.304;2023-03-23T17:43:44;98884.78;;;15.91;51.60
69855;BME280;57146;48.140;16.304;2023-03-23T17:46:12;98884.00;;;15.90;51.74
69855;BME280;57146;48.140;16.304;2023-03-23T17:48:41;98887.59;;;15.82;51.43
69855;BME280;57146;48.140;16.304;2023-03-23T17:51:08;98887.25;;;15.84;51.84
69855;BME280;57146;48.140;16.304;2023-03-23T17:53:38;98884.75;;;15.75;51.71
69855;BME280;57146;48.140;16.304;2023-03-23T17:56:07;98886.00;;;15.65;52.04
69855;BME280;57146;48.140;16.304;2023-03-23T17:58:37;98892.94;;;15.54;52.04
69855;BME280;57146;48.140;16.304;2023-03-23T18:01:05;98895.44;;;15.63;51.71
69855;BME280;57146;48.140;16.304;2023-03-23T18:03:36;98881.06;;;15.48;52.01
69855;BME280;57146;48.140;16.304;2023-03-23T18:06:05;98891.22;;;15.46;51.99
69855;BME280;57146;48.140;16.304;2023-03-23T18:08:37;98891.91;;;15.43;52.86
69855;BME280;57146;48.140;16.304;2023-03-23T18:11:06;98893.78;;;15.42;52.25
69855;BME280;57146;48.140;16.304;2023-03-23T18:13:35;98905.25;;;15.46;51.96
69855;BME280;57146;48.140;16.304;2023-03-23T18:16:03;98896.78;;;15.41;52.33
69855;BME280;57146;48.140;16.304;2023-03-23T18:18:31;98898.34;;;15.42;52.30
69855;BME280;57146;48.140;16.304;2023-03-23T18:21:04;98902.44;;;15.39;53.02
69855;BME280;57146;48.140;16.304;2023-03-23T18:23:36;98900.22;;;15.41;53.01
69855;BME280;57146;48.140;16.304;2023-03-23T18:26:14;98907.16;;;15.46;52.29
69855;BME280;57146;48.140;16.304;2023-03-23T18:28:42;98907.72;;;15.39;53.09
69855;BME280;57146;48.140;16.304;2023-03-23T18:31:12;98919.88;;;15.40;53.16
69855;BME280;57146;48.140;16.304;2023-03-23T18:34:08;98925.34;;;15.47;53.51
69855;BME280;57146;48.140;16.304;2023-03-23T18:36:40;98919.78;;;15.37;53.58
69855;BME280;57146;48.140;16.304;2023-03-23T18:39:07;98919.28;;;15.31;53.75
69855;BME280;57146;48.140;16.304;2023-03-23T18:41:38;98918.72;;;15.25;54.14
69855;BME280;57146;48.140;16.304;2023-03-23T18:44:05;98916.56;;;15.15;54.10
69855;BME280;57146;48.140;16.304;2023-03-23T18:46:33;98922.66;;;15.16;54.56
69855;BME280;57146;48.140;16.304;2023-03-23T18:49:02;98914.16;;;15.10;54.91
69855;BME280;57146;48.140;16.304;2023-03-23T18:51:30;98924.19;;;15.17;55.62
69855;BME280;57146;48.140;16.304;2023-03-23T18:53:58;98926.75;;;15.13;56.25
69855;BME280;57146;48.140;16.304;2023-03-23T18:56:26;98916.56;;;15.15;54.98
69855;BME280;57146;48.140;16.304;2023-03-23T18:58:53;98920.72;;;15.00;55.13
69855;BME280;57146;48.140;16.304;2023-03-23T19:01:22;98924.53;;;14.87;55.26
69855;BME280;57146;48.140;16.304;2023-03-23T19:03:51;98919.66;;;14.89;55.58
69855;BME280;57146;48.140;16.304;2023-03-23T19:06:23;98925.66;;;14.74;55.38
69855;BME280;57146;48.140;16.304;2023-03-23T19:08:52;98927.50;;;14.85;54.96
69855;BME280;57146;48.140;16.304;2023-03-23T19:11:22;98926.88;;;14.76;55.72
69855;BME280;57146;48.140;16.304;2023-03-23T19:13:51;98922.91;;;14.70;55.77
69855;BME280;57146;48.140;16.304;2023-03-23T19:16:42;98924.69;;;14.66;55.69
69855;BME280;57146;48.140;16.304;2023-03-23T19:19:10;98925.25;;;14.59;55.58
69855;BME280;57146;48.140;16.304;2023-03-23T19:21:41;98918.28;;;14.55;56.33
69855;BME280;57146;48.140;16.304;2023-03-23T19:24:14;98924.69;;;14.42;55.98
69855;BME280;57146;48.140;16.304;2023-03-23T19:26:43;98932.75;;;14.45;56.01
69855;BME280;57146;48.140;16.304;2023-03-23T19:29:16;98929.75;;;14.47;55.57
69855;BME280;57146;48.140;16.304;2023-03-23T19:31:54;98925.38;;;14.38;55.91
69855;BME280;57146;48.140;16.304;2023-03-23T19:34:30;98924.91;;;14.36;56.26
69855;BME280;57146;48.140;16.304;2023-03-23T19:37:23;98930.97;;;14.37;55.97
69855;BME280;57146;48.140;16.304;2023-03-23T19:39:55;98945.56;;;14.31;56.14
69855;BME280;57146;48.140;16.304;2023-03-23T19:42:24;98921.06;;;14.22;56.48
69855;BME280;57146;48.140;16.304;2023-03-23T19:44:53;98927.91;;;14.10;56.79
69855;BME280;57146;48.140;16.304;2023-03-23T19:47:21;98936.06;;;14.18;56.26
69855;BME280;57146;48.140;16.304;2023-03-23T19:49:49;98940.59;;;14.17;55.57
69855;BME280;57146;48.140;16.304;2023-03-23T19:52:18;98942.78;;;14.15;56.36
69855;BME280;57146;48.140;16.304;2023-03-23T19:54:49;98940.59;;;14.17;56.54
69855;BME280;57146;48.140;16.304;2023-03-23T19:57:19;98937.84;;;14.13;56.32
69855;BME280;57146;48.140;16.304;2023-03-23T19:59:49;98930.09;;;14.08;56.84
69855;BME280;57146;48.140;16.304;2023-03-23T20:02:17;98931.09;;;14.04;56.89
69855;BME280;57146;48.140;16.304;2023-03-23T20:04:45;98939.38;;;14.02;56.70
69855;BME280;57146;48.140;16.304;2023-03-23T20:07:15;98933.22;;;13.98;56.84
69855;BME280;57146;48.140;16.304;2023-03-23T20:09:47;98939.69;;;13.88;57.40
69855;BME280;57146;48.140;16.304;2023-03-23T20:12:15;98927.69;;;13.91;57.35
69855;BME280;57146;48.140;16.304;2023-03-23T20:14:43;98940.47;;;13.77;57.45
69855;BME280;57146;48.140;16.304;2023-03-23T20:17:13;98938.34;;;13.82;58.40
69855;BME280;57146;48.140;16.304;2023-03-23T20:19:40;98934.06;;;13.78;57.90
69855;BME280;57146;48.140;16.304;2023-03-23T20:22:11;98934.94;;;13.82;57.33
69855;BME280;57146;48.140;16.304;2023-03-23T20:24:40;98934.38;;;13.76;57.65
69855;BME280;57146;48.140;16.304;2023-03-23T20:27:10;98941.00;;;13.70;58.08
69855;BME280;57146;48.140;16.304;2023-03-23T20:29:37;98938.22;;;13.67;57.97
69855;BME280;57146;48.140;16.304;2023-03-23T20:32:08;98933.41;;;13.81;57.79
69855;BME280;57146;48.140;16.304;2023-03-23T20:34:36;98942.31;;;13.76;58.32
69855;BME280;57146;48.140;16.304;2023-03-23T20:37:04;98942.88;;;13.70;58.36
69855;BME280;57146;48.140;16.304;2023-03-23T20:39:32;98943.31;;;13.72;59.13
69855;BME280;57146;48.140;16.304;2023-03-23T20:42:01;98946.59;;;13.69;58.92
69855;BME280;57146;48.140;16.304;2023-03-23T20:44:55;98957.28;;;13.60;58.90
69855;BME280;57146;48.140;16.304;2023-03-23T20:47:23;98962.63;;;13.51;58.96
69855;BME280;57146;48.140;16.304;2023-03-23T20:49:51;98968.16;;;13.58;59.63
69855;BME280;57146;48.140;16.304;2023-03-23T20:52:21;98963.53;;;13.55;59.84
69855;BME280;57146;48.140;16.304;2023-03-23T20:54:49;98966.84;;;13.52;59.54
69855;BME280;57146;48.140;16.304;2023-03-23T20:57:17;98972.81;;;13.61;59.28
69855;BME280;57146;48.140;16.304;2023-03-23T20:59:51;98968.03;;;13.55;59.89
69855;BME280;57146;48.140;16.304;2023-03-23T21:02:21;98968.03;;;13.55;60.08
69855;BME280;57146;48.140;16.304;2023-03-23T21:04:48;98968.66;;;13.39;60.72
69855;BME280;57146;48.140;16.304;2023-03-23T21:07:16;98968.53;;;13.36;60.97
69855;BME280;57146;48.140;16.304;2023-03-23T21:09:43;98968.56;;;13.48;61.49
69855;BME280;57146;48.140;16.304;2023-03-23T21:12:11;98965.34;;;13.63;60.63
69855;BME280;57146;48.140;16.304;2023-03-23T21:14:39;98958.94;;;13.64;60.70
69855;BME280;57146;48.140;16.304;2023-03-23T21:17:07;98951.66;;;13.61;60.44
69855;BME280;57146;48.140;16.304;2023-03-23T21:19:35;98960.81;;;13.64;60.92
69855;BME280;57146;48.140;16.304;2023-03-23T21:22:28;98956.38;;;13.56;60.86
69855;BME280;57146;48.140;16.304;2023-03-23T21:24:57;98949.53;;;13.55;60.97
69855;BME280;57146;48.140;16.304;2023-03-23T21:27:24;98955.16;;;13.53;61.54
69855;BME280;57146;48.140;16.304;2023-03-23T21:29:56;98950.41;;;13.47;62.04
69855;BME280;57146;48.140;16.304;2023-03-23T21:32:24;98948.88;;;13.46;61.35
69855;BME280;57146;48.140;16.304;2023-03-23T21:34:51;98957.81;;;13.53;61.57
69855;BME280;57146;48.140;16.304;2023-03-23T21:37:18;98960.88;;;13.55;61.25
69855;BME280;57146;48.140;16.304;2023-03-23T21:39:45;98963.41;;;13.52;61.51
69855;BME280;57146;48.140;16.304;2023-03-23T21:42:12;98962.50;;;13.48;61.46
69855;BME280;57146;48.140;16.304;2023-03-23T21:44:39;98956.47;;;13.47;62.12
69855;BME280;57146;48.140;16.304;2023-03-23T21:47:08;98966.25;;;13.47;61.23
69855;BME280;57146;48.140;16.304;2023-03-23T21:49:35;98962.38;;;13.44;60.77
69855;BME280;57146;48.140;16.304;2023-03-23T21:52:08;98956.97;;;13.40;60.68
69855;BME280;57146;48.140;16.304;2023-03-23T21:54:35;98967.25;;;13.42;60.61
69855;BME280;57146;48.140;16.304;2023-03-23T21:57:03;98958.22;;;13.43;60.87
69855;BME280;57146;48.140;16.304;2023-03-23T21:59:29;98957.09;;;13.44;60.75
69855;BME280;57146;48.140;16.304;2023-03-23T22:01:58;98954.91;;;13.46;60.96
69855;BME280;57146;48.140;16.304;2023-03-23T22:04:26;98956.78;;;13.46;61.15
69855;BME280;57146;48.140;16.304;2023-03-23T22:06:53;98945.44;;;13.45;61.21
69855;BME280;57146;48.140;16.304;2023-03-23T22:09:20;98942.34;;;13.43;61.47
69855;BME280;57146;48.140;16.304;2023-03-23T22:11:47;98947.28;;;13.45;61.70
69855;BME280;57146;48.140;16.304;2023-03-23T22:14:15;98944.28;;;13.34;61.38
69855;BME280;57146;48.140;16.304;2023-03-23T22:16:42;98941.53;;;13.30;62.11
69855;BME280;57146;48.140;16.304;2023-03-23T22:19:09;98942.56;;;13.38;61.68
69855;BME280;57146;48.140;16.304;2023-03-23T22:21:36;98937.81;;;13.31;61.78
69855;BME280;57146;48.140;16.304;2023-03-23T22:24:03;98921.06;;;13.27;62.24
69855;BME280;57146;48.140;16.304;2023-03-23T22:26:32;98925.22;;;13.28;62.21
69855;BME280;57146;48.140;16.304;2023-03-23T22:29:00;98925.25;;;13.19;62.62
69855;BME280;57146;48.140;16.304;2023-03-23T22:31:31;98922.31;;;13.21;62.28
69855;BME280;57146;48.140;16.304;2023-03-23T22:34:01;98917.66;;;13.18;63.52
69855;BME280;57146;48.140;16.304;2023-03-23T22:36:32;98917.22;;;13.16;64.43
69855;BME280;57146;48.140;16.304;2023-03-23T22:39:02;98917.41;;;13.32;63.29
69855;BME280;57146;48.140;16.304;2023-03-23T22:41:32;98913.47;;;13.38;62.61
69855;BME280;57146;48.140;16.304;2023-03-23T22:44:03;98915.88;;;13.31;63.42
69855;BME280;57146;48.140;16.304;2023-03-23T22:46:32;98916.00;;;13.34;63.35
69855;BME280;57146;48.140;16.304;2023-03-23T22:48:59;98916.66;;;13.31;63.05
69855;BME280;57146;48.140;16.304;2023-03-23T22:51:26;98913.38;;;13.13;64.54
69855;BME280;57146;48.140;16.304;2023-03-23T22:53:53;98918.41;;;13.06;64.32
69855;BME280;57146;48.140;16.304;2023-03-23T22:56:22;98910.66;;;13.01;64.67
69855;BME280;57146;48.140;16.304;2023-03-23T22:58:50;98907.59;;;12.99;64.16
69855;BME280;57146;48.140;16.304;2023-03-23T23:01:20;98914.88;;;13.02;64.21
69855;BME280;57146;48.140;16.304;2023-03-23T23:03:48;98913.44;;;13.05;63.81
69855;BME280;57146;48.140;16.304;2023-03-23T23:06:16;98914.28;;;12.97;63.95
69855;BME280;57146;48.140;16.304;2023-03-23T23:08:45;98911.13;;;13.03;63.66
69855;BME280;57146;48.140;16.304;2023-03-23T23:11:15;98911.00;;;13.00;64.05
69855;BME280;57146;48.140;16.304;2023-03-23T23:13:42;98912.13;;;13.11;63.58
69855;BME280;57146;48.140;16.304;2023-03-23T23:16:11;98908.03;;;13.01;63.53
69855;BME280;57146;48.140;16.304;2023-03-23T23:18:38;98896.66;;;12.88;63.99
69855;BME280;57146;48.140;16.304;2023-03-23T23:21:09;98904.44;;;12.85;64.38
69855;BME280;57146;48.140;16.304;2023-03-23T23:23:36;98904.44;;;12.85;64.28
69855;BME280;57146;48.140;16.304;2023-03-23T23:26:04;98899.06;;;12.73;63.95
69855;BME280;57146;48.140;16.304;2023-03-23T23:28:31;98903.94;;;12.70;64.16
69855;BME280;57146;48.140;16.304;2023-03-23T23:30:59;98901.72;;;12.73;64.39
69855;BME280;57146;48.140;16.304;2023-03-23T23:33:26;98899.06;;;12.73;64.83
69855;BME280;57146;48.140;16.304;2023-03-23T23:35:53;98895.38;;;12.74;64.10
69855;BME280;57146;48.140;16.304;2023-03-23T23:38:20;98888.50;;;12.73;65.23
69855;BME280;57146;48.140;16.304;2023-03-23T23:40:48;98898.00;;;12.74;64.77
69855;BME280;57146;48.140;16.304;2023-03-23T23:43:15;98888.72;;;12.67;64.32
69855;BME280;57146;48.140;16.304;2023-03-23T23:45:42;98897.06;;;12.69;64.20
69855;BME280;57146;48.140;16.304;2023-03-23T23:48:10;98897.91;;;12.61;64.51
69855;BME280;57146;48.140;16.304;2023-03-23T23:50:37;98890.38;;;12.51;65.26
69855;BME280;57146;48.140;16.304;2023-03-23T23:53:04;98887.44;;;12.53;65.22
69855;BME280;57146;48.140;16.304;2023-03-23T23:55:31;98892.59;;;12.49;65.31
69855;BME280;57146;48.140;16.304;2023-03-23T23:57:58;98893.91;;;12.55;64.92
